CLTO2: Kiamichi River Near Clayton, OK

Data processed at Thu May 23 2019 23:50


All information presented herein is the property of the government of the United States of America and may be revised or deleted at any time without prior notice.
Dissemination of this information without the expressed written consent of the Public Affairs Office, Tulsa District U.S. Army Corps of Engineers is strictly prohibited.
These data are gathered electronically and, as presented, have not undergone any form of quality control. These data are not guaranteed to be valid or correct.
Go to home page.
Go to station list.
Go to home page.

Upstream stations:

Downstream station:
Previous Day
Next Day
Current Day
    
SHEF ID:       CLTO2     Kiamichi River near Clayton, OK
STATION TYPE:  
Regulating: Stage =    15.00, Flow =    15549

               PRECIP     STAGE  RIV-FLOW  BAT-LOAD
                   in        ft       cfs      volt
              Ccp-Rev   Ccp-Rev   Ccp-Rev   Ccp-Rev
(US/Central)
05/23 00:00      0.00      6.28      1799     12.89
05/23 01:00      0.00      6.25      1764     12.89
05/23 02:00      0.00      6.22      1730     12.89
05/23 03:00      0.00      6.18      1684     12.81
05/23 04:00      0.00      6.16      1659     12.81
05/23 05:00      0.00      6.13      1623     12.81
05/23 06:00      0.00      6.10      1587     12.81
05/23 07:00      0.00      6.08      1563     12.81
05/23 08:00      0.00      6.05      1528     13.37
05/23 09:00      0.00      6.03      1505     13.84
05/23 10:00      0.00      6.01      1482     13.92
05/23 11:00      0.00      5.99      1459     14.00
05/23 12:00      0.00      5.97      1437     13.92
05/23 13:00      0.00      5.95      1415     13.84
05/23 14:00      0.00      5.94      1404     13.84
05/23 15:00      0.00      5.92      1382     13.76
05/23 16:00      0.00      5.90      1360     13.68
05/23 17:00      0.00      5.89      1349     13.68
05/23 18:00      0.00      5.87      1327     13.60
05/23 19:00      0.00      5.85      1303     13.60
05/23 20:00      0.00      5.84      1291     13.37
05/23 21:00      0.00      5.82      1267     12.97
05/23 22:00      0.00      5.81      1255     12.89
05/23 23:00      0.00      5.80      1244     12.89